sensor_id;sensor_type;location;lat;lon;timestamp;temperature;humidity
55365;DHT22;41245;45.384;20.390;2023-02-03T00:01:53;77.60;2227.20
55365;DHT22;41245;45.384;20.390;2023-02-03T00:04:19;77.60;2227.20
55365;DHT22;41245;45.384;20.390;2023-02-03T00:06:45;77.60;2227.20
55365;DHT22;41245;45.384;20.390;2023-02-03T00:09:11;77.60;2227.20
55365;DHT22;41245;45.384;20.390;2023-02-03T00:11:37;77.60;2227.20
55365;DHT22;41245;45.384;20.390;2023-02-03T00:14:02;77.50;2227.20
55365;DHT22;41245;45.384;20.390;2023-02-03T00:16:30;77.50;2227.20
55365;DHT22;41245;45.384;20.390;2023-02-03T00:18:55;77.50;2227.20
55365;DHT22;41245;45.384;20.390;2023-02-03T00:21:21;77.50;2227.20
55365;DHT22;41245;45.384;20.390;2023-02-03T00:23:47;77.40;2227.20
55365;DHT22;41245;45.384;20.390;2023-02-03T00:26:14;77.40;2227.20
55365;DHT22;41245;45.384;20.390;2023-02-03T00:28:40;77.40;2227.20
55365;DHT22;41245;45.384;20.390;2023-02-03T00:31:14;77.30;2227.20
55365;DHT22;41245;45.384;20.390;2023-02-03T00:38:32;77.40;2227.20
55365;DHT22;41245;45.384;20.390;2023-02-03T00:40:58;77.30;2227.20
55365;DHT22;41245;45.384;20.390;2023-02-03T00:43:23;77.30;2227.20
55365;DHT22;41245;45.384;20.390;2023-02-03T00:45:49;77.30;2227.20
55365;DHT22;41245;45.384;20.390;2023-02-03T00:48:14;77.30;2227.20
55365;DHT22;41245;45.384;20.390;2023-02-03T00:50:40;77.20;2227.20
55365;DHT22;41245;45.384;20.390;2023-02-03T00:53:06;77.30;2227.20
55365;DHT22;41245;45.384;20.390;2023-02-03T00:55:31;77.30;2227.20
55365;DHT22;41245;45.384;20.390;2023-02-03T00:57:57;77.30;2227.20
55365;DHT22;41245;45.384;20.390;2023-02-03T01:00:23;77.30;2227.20
55365;DHT22;41245;45.384;20.390;2023-02-03T01:02:48;77.30;2227.20
55365;DHT22;41245;45.384;20.390;2023-02-03T01:05:14;77.30;2227.20
55365;DHT22;41245;45.384;20.390;2023-02-03T01:07:40;77.30;2227.20
55365;DHT22;41245;45.384;20.390;2023-02-03T01:10:06;77.30;2227.20
55365;DHT22;41245;45.384;20.390;2023-02-03T01:12:32;77.30;2227.20
55365;DHT22;41245;45.384;20.390;2023-02-03T01:14:58;77.30;2227.20
55365;DHT22;41245;45.384;20.390;2023-02-03T01:17:24;77.30;2227.20
55365;DHT22;41245;45.384;20.390;2023-02-03T01:19:50;77.30;2227.20
55365;DHT22;41245;45.384;20.390;2023-02-03T01:22:16;77.30;2227.20
55365;DHT22;41245;45.384;20.390;2023-02-03T01:24:41;77.30;2227.20
55365;DHT22;41245;45.384;20.390;2023-02-03T01:27:07;77.20;2227.20
55365;DHT22;41245;45.384;20.390;2023-02-03T01:29:33;77.20;2227.20
55365;DHT22;41245;45.384;20.390;2023-02-03T01:31:59;77.20;2227.20
55365;DHT22;41245;45.384;20.390;2023-02-03T01:34:24;77.20;2227.20
55365;DHT22;41245;45.384;20.390;2023-02-03T01:36:50;77.20;2227.20
55365;DHT22;41245;45.384;20.390;2023-02-03T01:39:16;77.20;2227.20
55365;DHT22;41245;45.384;20.390;2023-02-03T01:41:41;77.20;2227.20
55365;DHT22;41245;45.384;20.390;2023-02-03T01:47:48;77.10;2227.20
55365;DHT22;41245;45.384;20.390;2023-02-03T01:50:22;77.20;2227.20
55365;DHT22;41245;45.384;20.390;2023-02-03T01:52:55;77.10;2227.20
55365;DHT22;41245;45.384;20.390;2023-02-03T01:55:29;77.60;2227.20
55365;DHT22;41245;45.384;20.390;2023-02-03T01:58:03;77.10;2227.20
55365;DHT22;41245;45.384;20.390;2023-02-03T02:00:31;77.10;2227.20
55365;DHT22;41245;45.384;20.390;2023-02-03T02:02:58;77.10;2227.20
55365;DHT22;41245;45.384;20.390;2023-02-03T02:05:33;77.00;2227.20
55365;DHT22;41245;45.384;20.390;2023-02-03T02:08:01;77.00;2227.20
55365;DHT22;41245;45.384;20.390;2023-02-03T02:10:30;77.00;2227.20
55365;DHT22;41245;45.384;20.390;2023-02-03T02:12:56;77.00;2227.20
55365;DHT22;41245;45.384;20.390;2023-02-03T02:26:43;77.00;2227.20
55365;DHT22;41245;45.384;20.390;2023-02-03T02:32:45;77.00;2227.20
55365;DHT22;41245;45.384;20.390;2023-02-03T02:37:52;76.90;2227.20
55365;DHT22;41245;45.384;20.390;2023-02-03T02:43:11;76.90;2227.20
55365;DHT22;41245;45.384;20.390;2023-02-03T02:48:39;76.90;2227.20
55365;DHT22;41245;45.384;20.390;2023-02-03T02:51:10;76.90;2227.20
55365;DHT22;41245;45.384;20.390;2023-02-03T02:53:42;76.90;2227.20
55365;DHT22;41245;45.384;20.390;2023-02-03T02:56:11;76.90;2227.20
55365;DHT22;41245;45.384;20.390;2023-02-03T02:58:40;76.90;2227.20
55365;DHT22;41245;45.384;20.390;2023-02-03T03:01:08;76.90;2227.20
55365;DHT22;41245;45.384;20.390;2023-02-03T03:03:34;76.90;2227.20
55365;DHT22;41245;45.384;20.390;2023-02-03T03:06:07;76.80;2227.20
55365;DHT22;41245;45.384;20.390;2023-02-03T03:08:38;76.90;2227.20
55365;DHT22;41245;45.384;20.390;2023-02-03T03:11:05;76.80;2227.20
55365;DHT22;41245;45.384;20.390;2023-02-03T03:13:34;76.90;2227.20
55365;DHT22;41245;45.384;20.390;2023-02-03T03:16:03;76.90;2227.20
55365;DHT22;41245;45.384;20.390;2023-02-03T03:18:32;76.90;2227.20
55365;DHT22;41245;45.384;20.390;2023-02-03T03:21:03;76.90;2227.20
55365;DHT22;41245;45.384;20.390;2023-02-03T03:23:38;76.90;2227.20
55365;DHT22;41245;45.384;20.390;2023-02-03T03:29:00;76.80;2227.20
55365;DHT22;41245;45.384;20.390;2023-02-03T03:31:28;76.80;2227.20
55365;DHT22;41245;45.384;20.390;2023-02-03T03:33:53;76.80;2227.20
55365;DHT22;41245;45.384;20.390;2023-02-03T03:36:38;76.80;2227.20
55365;DHT22;41245;45.384;20.390;2023-02-03T03:41:57;51.90;2227.20
55365;DHT22;41245;45.384;20.390;2023-02-03T03:44:31;76.80;2227.20
55365;DHT22;41245;45.384;20.390;2023-02-03T03:50:02;52.10;2227.20
55365;DHT22;41245;45.384;20.390;2023-02-03T03:52:31;52.10;2227.20
55365;DHT22;41245;45.384;20.390;2023-02-03T03:55:02;52.10;2227.20
55365;DHT22;41245;45.384;20.390;2023-02-03T03:57:38;52.00;2227.20
55365;DHT22;41245;45.384;20.390;2023-02-03T04:00:07;52.10;2227.20
55365;DHT22;41245;45.384;20.390;2023-02-03T04:02:35;52.00;2227.20
55365;DHT22;41245;45.384;20.390;2023-02-03T04:05:03;52.10;2227.20
55365;DHT22;41245;45.384;20.390;2023-02-03T04:07:41;52.00;2227.20
55365;DHT22;41245;45.384;20.390;2023-02-03T04:10:16;51.90;2227.20
55365;DHT22;41245;45.384;20.390;2023-02-03T04:12:43;51.90;2227.20
55365;DHT22;41245;45.384;20.390;2023-02-03T04:15:08;51.90;2227.20
55365;DHT22;41245;45.384;20.390;2023-02-03T04:17:34;51.90;2227.20
55365;DHT22;41245;45.384;20.390;2023-02-03T04:20:02;51.90;2227.20
55365;DHT22;41245;45.384;20.390;2023-02-03T04:22:28;51.90;2227.20
55365;DHT22;41245;45.384;20.390;2023-02-03T04:24:53;51.90;2227.20
55365;DHT22;41245;45.384;20.390;2023-02-03T04:27:19;51.90;2227.20
55365;DHT22;41245;45.384;20.390;2023-02-03T04:29:45;51.80;2227.20
55365;DHT22;41245;45.384;20.390;2023-02-03T04:32:12;51.80;2227.20
55365;DHT22;41245;45.384;20.390;2023-02-03T04:34:37;51.70;2227.20
55365;DHT22;41245;45.384;20.390;2023-02-03T04:37:03;51.90;2227.20
55365;DHT22;41245;45.384;20.390;2023-02-03T04:39:28;51.80;2227.20
55365;DHT22;41245;45.384;20.390;2023-02-03T04:41:54;51.90;2227.20
55365;DHT22;41245;45.384;20.390;2023-02-03T04:44:20;51.70;2227.20
55365;DHT22;41245;45.384;20.390;2023-02-03T04:46:45;51.70;2227.20
55365;DHT22;41245;45.384;20.390;2023-02-03T04:49:11;51.70;2227.20
55365;DHT22;41245;45.384;20.390;2023-02-03T04:51:37;51.70;2227.20
55365;DHT22;41245;45.384;20.390;2023-02-03T04:54:02;51.70;2227.20
55365;DHT22;41245;45.384;20.390;2023-02-03T04:56:28;51.70;2227.20
55365;DHT22;41245;45.384;20.390;2023-02-03T04:58:53;51.70;2227.20
55365;DHT22;41245;45.384;20.390;2023-02-03T05:01:19;51.60;2227.20
55365;DHT22;41245;45.384;20.390;2023-02-03T05:03:45;51.70;2227.20
55365;DHT22;41245;45.384;20.390;2023-02-03T05:06:10;51.70;2227.20
55365;DHT22;41245;45.384;20.390;2023-02-03T05:08:36;51.70;2227.20
55365;DHT22;41245;45.384;20.390;2023-02-03T05:11:02;51.70;2227.20
55365;DHT22;41245;45.384;20.390;2023-02-03T05:13:27;51.70;2227.20
55365;DHT22;41245;45.384;20.390;2023-02-03T05:15:53;51.70;2227.20
55365;DHT22;41245;45.384;20.390;2023-02-03T05:18:18;51.70;2227.20
55365;DHT22;41245;45.384;20.390;2023-02-03T05:20:44;51.70;2227.20
55365;DHT22;41245;45.384;20.390;2023-02-03T05:23:10;51.60;2227.20
55365;DHT22;41245;45.384;20.390;2023-02-03T05:25:35;51.60;2227.20
55365;DHT22;41245;45.384;20.390;2023-02-03T05:28:01;51.60;2227.20
55365;DHT22;41245;45.384;20.390;2023-02-03T05:30:27;51.60;2227.20
55365;DHT22;41245;45.384;20.390;2023-02-03T05:32:52;51.60;2227.20
55365;DHT22;41245;45.384;20.390;2023-02-03T05:35:18;51.60;2227.20
55365;DHT22;41245;45.384;20.390;2023-02-03T05:37:44;51.60;2227.20
55365;DHT22;41245;45.384;20.390;2023-02-03T05:40:11;51.70;2227.20
55365;DHT22;41245;45.384;20.390;2023-02-03T05:42:56;51.70;2227.20
55365;DHT22;41245;45.384;20.390;2023-02-03T05:45:22;51.70;2227.20
55365;DHT22;41245;45.384;20.390;2023-02-03T05:47:47;51.70;2227.20
55365;DHT22;41245;45.384;20.390;2023-02-03T05:50:13;51.70;2227.20
55365;DHT22;41245;45.384;20.390;2023-02-03T05:52:39;51.80;2227.20
55365;DHT22;41245;45.384;20.390;2023-02-03T05:55:04;51.50;2227.20
55365;DHT22;41245;45.384;20.390;2023-02-03T05:57:30;51.80;2227.20
55365;DHT22;41245;45.384;20.390;2023-02-03T05:59:56;51.80;2227.20
55365;DHT22;41245;45.384;20.390;2023-02-03T06:02:21;51.80;2227.20
55365;DHT22;41245;45.384;20.390;2023-02-03T06:04:47;51.90;2227.20
55365;DHT22;41245;45.384;20.390;2023-02-03T06:07:12;51.80;2227.20
55365;DHT22;41245;45.384;20.390;2023-02-03T06:09:38;51.90;2227.20
55365;DHT22;41245;45.384;20.390;2023-02-03T06:12:04;51.90;2227.20
55365;DHT22;41245;45.384;20.390;2023-02-03T06:14:29;51.90;2227.20
55365;DHT22;41245;45.384;20.390;2023-02-03T06:16:55;51.90;2227.20
55365;DHT22;41245;45.384;20.390;2023-02-03T06:19:21;51.80;2227.20
55365;DHT22;41245;45.384;20.390;2023-02-03T06:21:46;51.80;2227.20
55365;DHT22;41245;45.384;20.390;2023-02-03T06:24:12;51.90;2227.20
55365;DHT22;41245;45.384;20.390;2023-02-03T06:26:38;51.90;2227.20
55365;DHT22;41245;45.384;20.390;2023-02-03T06:29:03;51.90;2227.20
55365;DHT22;41245;45.384;20.390;2023-02-03T06:38:48;76.90;2227.20
55365;DHT22;41245;45.384;20.390;2023-02-03T07:27:38;103.00;2227.20
55365;DHT22;41245;45.384;20.390;2023-02-03T07:30:04;103.00;2227.20
55365;DHT22;41245;45.384;20.390;2023-02-03T07:34:56;128.20;2252.80
55365;DHT22;41245;45.384;20.390;2023-02-03T07:37:21;128.30;2252.80
55365;DHT22;41245;45.384;20.390;2023-02-03T07:39:47;128.50;2252.80
55365;DHT22;41245;45.384;20.390;2023-02-03T07:42:12;128.70;2252.80
55365;DHT22;41245;45.384;20.390;2023-02-03T07:44:38;128.80;2252.80
55365;DHT22;41245;45.384;20.390;2023-02-03T07:47:03;153.60;2252.80
55365;DHT22;41245;45.384;20.390;2023-02-03T07:49:29;153.70;2252.80
55365;DHT22;41245;45.384;20.390;2023-02-03T07:51:55;153.80;2252.80
55365;DHT22;41245;45.384;20.390;2023-02-03T07:54:20;153.90;2252.80
55365;DHT22;41245;45.384;20.390;2023-02-03T07:56:46;153.90;2252.80
55365;DHT22;41245;45.384;20.390;2023-02-03T07:59:12;154.00;2252.80
55365;DHT22;41245;45.384;20.390;2023-02-03T08:01:37;154.10;2252.80
55365;DHT22;41245;45.384;20.390;2023-02-03T08:04:03;154.10;2252.80
55365;DHT22;41245;45.384;20.390;2023-02-03T08:06:30;154.20;2252.80
55365;DHT22;41245;45.384;20.390;2023-02-03T08:08:55;154.30;2252.80
55365;DHT22;41245;45.384;20.390;2023-02-03T08:11:21;154.50;2252.80
55365;DHT22;41245;45.384;20.390;2023-02-03T08:13:47;154.50;2252.80
55365;DHT22;41245;45.384;20.390;2023-02-03T08:16:12;179.20;2252.80
55365;DHT22;41245;45.384;20.390;2023-02-03T08:18:38;179.20;2252.80
55365;DHT22;41245;45.384;20.390;2023-02-03T08:21:03;179.30;2252.80
55365;DHT22;41245;45.384;20.390;2023-02-03T08:23:30;179.30;2252.80
55365;DHT22;41245;45.384;20.390;2023-02-03T08:25:55;179.40;2252.80
55365;DHT22;41245;45.384;20.390;2023-02-03T08:28:21;179.50;2252.80
55365;DHT22;41245;45.384;20.390;2023-02-03T08:30:46;179.40;2252.80
55365;DHT22;41245;45.384;20.390;2023-02-03T08:33:12;179.40;2252.80
55365;DHT22;41245;45.384;20.390;2023-02-03T08:35:38;179.40;2252.80
55365;DHT22;41245;45.384;20.390;2023-02-03T08:38:05;179.50;2252.80
55365;DHT22;41245;45.384;20.390;2023-02-03T08:40:30;179.50;2252.80
55365;DHT22;41245;45.384;20.390;2023-02-03T08:42:56;179.60;2252.80
55365;DHT22;41245;45.384;20.390;2023-02-03T08:45:21;179.40;2252.80
55365;DHT22;41245;45.384;20.390;2023-02-03T08:47:48;179.50;2252.80
55365;DHT22;41245;45.384;20.390;2023-02-03T08:50:13;179.60;2252.80
55365;DHT22;41245;45.384;20.390;2023-02-03T08:52:39;179.50;2252.80
55365;DHT22;41245;45.384;20.390;2023-02-03T08:55:05;179.40;2252.80
55365;DHT22;41245;45.384;20.390;2023-02-03T08:57:32;179.30;2252.80
55365;DHT22;41245;45.384;20.390;2023-02-03T08:59:58;179.40;2252.80
55365;DHT22;41245;45.384;20.390;2023-02-03T09:02:24;179.40;2252.80
55365;DHT22;41245;45.384;20.390;2023-02-03T09:04:50;179.40;2252.80
55365;DHT22;41245;45.384;20.390;2023-02-03T09:07:16;179.30;2252.80
55365;DHT22;41245;45.384;20.390;2023-02-03T09:09:42;179.40;2252.80
55365;DHT22;41245;45.384;20.390;2023-02-03T09:12:08;179.60;2252.80
55365;DHT22;41245;45.384;20.390;2023-02-03T10:02:01;205.30;2252.80
55365;DHT22;41245;45.384;20.390;2023-02-03T10:04:41;205.30;2252.80
55365;DHT22;41245;45.384;20.390;2023-02-03T10:07:24;205.10;2252.80
55365;DHT22;41245;45.384;20.390;2023-02-03T10:10:18;205.00;2252.80
55365;DHT22;41245;45.384;20.390;2023-02-03T10:13:00;205.10;2252.80
55365;DHT22;41245;45.384;20.390;2023-02-03T10:18:27;205.30;2252.80
55365;DHT22;41245;45.384;20.390;2023-02-03T10:20:58;205.30;2252.80
55365;DHT22;41245;45.384;20.390;2023-02-03T10:23:34;205.30;2252.80
55365;DHT22;41245;45.384;20.390;2023-02-03T10:26:04;205.30;2252.80
55365;DHT22;41245;45.384;20.390;2023-02-03T10:28:46;205.30;2252.80
55365;DHT22;41245;45.384;20.390;2023-02-03T10:31:24;205.50;2252.80
55365;DHT22;41245;45.384;20.390;2023-02-03T10:34:07;205.60;2252.80
55365;DHT22;41245;45.384;20.390;2023-02-03T10:36:53;205.50;2252.80
55365;DHT22;41245;45.384;20.390;2023-02-03T10:39:30;205.50;2252.80
55365;DHT22;41245;45.384;20.390;2023-02-03T10:41:57;205.50;2252.80
55365;DHT22;41245;45.384;20.390;2023-02-03T10:44:32;205.60;2252.80
55365;DHT22;41245;45.384;20.390;2023-02-03T10:46:59;205.50;2252.80
55365;DHT22;41245;45.384;20.390;2023-02-03T10:49:26;205.40;2252.80
55365;DHT22;41245;45.384;20.390;2023-02-03T10:51:56;205.40;2252.80
55365;DHT22;41245;45.384;20.390;2023-02-03T10:54:30;205.50;2252.80
55365;DHT22;41245;45.384;20.390;2023-02-03T10:56:57;205.50;2252.80
55365;DHT22;41245;45.384;20.390;2023-02-03T10:59:32;205.70;2252.80
55365;DHT22;41245;45.384;20.390;2023-02-03T11:01:58;230.40;2252.80
55365;DHT22;41245;45.384;20.390;2023-02-03T11:04:31;230.40;2252.80
55365;DHT22;41245;45.384;20.390;2023-02-03T11:07:02;230.60;2252.80
55365;DHT22;41245;45.384;20.390;2023-02-03T11:09:41;230.80;2252.80
55365;DHT22;41245;45.384;20.390;2023-02-03T11:37:32;256.00;2252.80
55365;DHT22;41245;45.384;20.390;2023-02-03T12:00:50;256.30;2252.80
55365;DHT22;41245;45.384;20.390;2023-02-03T12:21:44;231.30;2252.80
55365;DHT22;41245;45.384;20.390;2023-02-03T12:27:13;231.20;2252.80
55365;DHT22;41245;45.384;20.390;2023-02-03T12:29:51;231.00;2252.80
55365;DHT22;41245;45.384;20.390;2023-02-03T12:38:43;230.90;2252.80
55365;DHT22;41245;45.384;20.390;2023-02-03T12:40:53;230.70;2252.80
55365;DHT22;41245;45.384;20.390;2023-02-03T12:46:02;230.60;2252.80
55365;DHT22;41245;45.384;20.390;2023-02-03T12:51:14;230.50;2252.80
55365;DHT22;41245;45.384;20.390;2023-02-03T12:53:47;205.70;2252.80
55365;DHT22;41245;45.384;20.390;2023-02-03T12:56:30;230.40;2252.80
55365;DHT22;41245;45.384;20.390;2023-02-03T12:59:04;230.40;2252.80
55365;DHT22;41245;45.384;20.390;2023-02-03T13:01:39;230.40;2252.80
55365;DHT22;41245;45.384;20.390;2023-02-03T13:09:47;230.40;2252.80
55365;DHT22;41245;45.384;20.390;2023-02-03T13:12:35;230.40;2252.80
55365;DHT22;41245;45.384;20.390;2023-02-03T13:18:09;230.50;2252.80
55365;DHT22;41245;45.384;20.390;2023-02-03T13:20:36;230.40;2252.80
55365;DHT22;41245;45.384;20.390;2023-02-03T13:23:10;230.50;2252.80
55365;DHT22;41245;45.384;20.390;2023-02-03T13:44:45;205.70;2252.80
55365;DHT22;41245;45.384;20.390;2023-02-03T13:47:17;205.60;2252.80
55365;DHT22;41245;45.384;20.390;2023-02-03T13:49:52;205.60;2252.80
55365;DHT22;41245;45.384;20.390;2023-02-03T13:54:58;205.60;2252.80
55365;DHT22;41245;45.384;20.390;2023-02-03T13:57:32;205.70;2252.80
55365;DHT22;41245;45.384;20.390;2023-02-03T13:59:59;205.70;2252.80
55365;DHT22;41245;45.384;20.390;2023-02-03T14:04:55;230.50;2252.80
55365;DHT22;41245;45.384;20.390;2023-02-03T14:07:36;230.50;2252.80
55365;DHT22;41245;45.384;20.390;2023-02-03T14:12:59;230.40;2252.80
55365;DHT22;41245;45.384;20.390;2023-02-03T14:20:39;230.40;2252.80
55365;DHT22;41245;45.384;20.390;2023-02-03T14:25:42;230.50;2252.80
55365;DHT22;41245;45.384;20.390;2023-02-03T14:28:12;230.60;2252.80
55365;DHT22;41245;45.384;20.390;2023-02-03T14:31:11;230.50;2252.80
55365;DHT22;41245;45.384;20.390;2023-02-03T14:33:51;230.60;2252.80
55365;DHT22;41245;45.384;20.390;2023-02-03T14:50:08;230.50;2252.80
55365;DHT22;41245;45.384;20.390;2023-02-03T14:58:19;230.50;2252.80
55365;DHT22;41245;45.384;20.390;2023-02-03T15:00:45;231.00;2252.80
55365;DHT22;41245;45.384;20.390;2023-02-03T15:05:40;230.50;2252.80
55365;DHT22;41245;45.384;20.390;2023-02-03T15:10:58;230.40;2252.80
55365;DHT22;41245;45.384;20.390;2023-02-03T15:13:28;230.40;2252.80
55365;DHT22;41245;45.384;20.390;2023-02-03T15:16:02;230.40;2252.80
55365;DHT22;41245;45.384;20.390;2023-02-03T15:18:35;230.40;2252.80
55365;DHT22;41245;45.384;20.390;2023-02-03T15:21:01;230.40;2252.80
55365;DHT22;41245;45.384;20.390;2023-02-03T15:23:35;230.40;2252.80
55365;DHT22;41245;45.384;20.390;2023-02-03T15:26:08;205.70;2252.80
55365;DHT22;41245;45.384;20.390;2023-02-03T15:28:36;205.60;2252.80
55365;DHT22;41245;45.384;20.390;2023-02-03T15:31:18;205.50;2252.80
55365;DHT22;41245;45.384;20.390;2023-02-03T15:33:47;205.50;2252.80
55365;DHT22;41245;45.384;20.390;2023-02-03T15:36:22;205.50;2252.80
55365;DHT22;41245;45.384;20.390;2023-02-03T15:39:09;205.40;2252.80
55365;DHT22;41245;45.384;20.390;2023-02-03T15:41:39;205.50;2252.80
55365;DHT22;41245;45.384;20.390;2023-02-03T15:44:12;205.40;2252.80
55365;DHT22;41245;45.384;20.390;2023-02-03T15:46:44;205.40;2252.80
55365;DHT22;41245;45.384;20.390;2023-02-03T15:49:26;205.30;2252.80
55365;DHT22;41245;45.384;20.390;2023-02-03T15:52:05;205.20;2252.80
55365;DHT22;41245;45.384;20.390;2023-02-03T15:54:36;205.30;2252.80
55365;DHT22;41245;45.384;20.390;2023-02-03T15:57:16;205.30;2252.80
55365;DHT22;41245;45.384;20.390;2023-02-03T15:59:54;205.30;2252.80
55365;DHT22;41245;45.384;20.390;2023-02-03T16:02:34;205.10;2252.80
55365;DHT22;41245;45.384;20.390;2023-02-03T16:05:04;205.20;2252.80
55365;DHT22;41245;45.384;20.390;2023-02-03T16:07:30;205.10;2252.80
55365;DHT22;41245;45.384;20.390;2023-02-03T16:09:57;205.10;2252.80
55365;DHT22;41245;45.384;20.390;2023-02-03T16:12:32;205.10;2252.80
55365;DHT22;41245;45.384;20.390;2023-02-03T16:14:59;205.00;2252.80
55365;DHT22;41245;45.384;20.390;2023-02-03T16:17:36;205.10;2252.80
55365;DHT22;41245;45.384;20.390;2023-02-03T16:22:43;205.00;2252.80
55365;DHT22;41245;45.384;20.390;2023-02-03T16:25:21;205.00;2252.80
55365;DHT22;41245;45.384;20.390;2023-02-03T16:28:20;205.10;2252.80
55365;DHT22;41245;45.384;20.390;2023-02-03T16:31:30;205.10;2252.80
55365;DHT22;41245;45.384;20.390;2023-02-03T16:34:17;205.10;2252.80
55365;DHT22;41245;45.384;20.390;2023-02-03T16:37:11;205.10;2252.80
55365;DHT22;41245;45.384;20.390;2023-02-03T16:39:56;205.00;2252.80
55365;DHT22;41245;45.384;20.390;2023-02-03T16:42:40;205.00;2252.80
55365;DHT22;41245;45.384;20.390;2023-02-03T16:45:24;205.00;2252.80
55365;DHT22;41245;45.384;20.390;2023-02-03T16:48:12;205.00;2252.80
55365;DHT22;41245;45.384;20.390;2023-02-03T16:51:02;205.00;2252.80
55365;DHT22;41245;45.384;20.390;2023-02-03T16:53:30;204.80;2252.80
55365;DHT22;41245;45.384;20.390;2023-02-03T16:56:01;204.90;2252.80
55365;DHT22;41245;45.384;20.390;2023-02-03T16:58:29;204.80;2252.80
55365;DHT22;41245;45.384;20.390;2023-02-03T17:00:56;204.80;2252.80
55365;DHT22;41245;45.384;20.390;2023-02-03T17:03:24;204.90;2252.80
55365;DHT22;41245;45.384;20.390;2023-02-03T17:05:52;204.90;2252.80
55365;DHT22;41245;45.384;20.390;2023-02-03T17:08:20;204.90;2252.80
55365;DHT22;41245;45.384;20.390;2023-02-03T17:10:46;205.00;2252.80
55365;DHT22;41245;45.384;20.390;2023-02-03T17:13:16;205.00;2252.80
55365;DHT22;41245;45.384;20.390;2023-02-03T17:15:46;205.00;2252.80
55365;DHT22;41245;45.384;20.390;2023-02-03T17:18:13;205.00;2252.80
55365;DHT22;41245;45.384;20.390;2023-02-03T17:20:40;205.00;2252.80
55365;DHT22;41245;45.384;20.390;2023-02-03T17:23:07;205.00;2252.80
55365;DHT22;41245;45.384;20.390;2023-02-03T17:25:33;205.00;2252.80
55365;DHT22;41245;45.384;20.390;2023-02-03T17:28:01;205.00;2252.80
55365;DHT22;41245;45.384;20.390;2023-02-03T17:30:27;204.90;2252.80
55365;DHT22;41245;45.384;20.390;2023-02-03T17:32:53;205.00;2252.80
55365;DHT22;41245;45.384;20.390;2023-02-03T17:35:19;205.00;2252.80
55365;DHT22;41245;45.384;20.390;2023-02-03T17:37:44;205.10;2252.80
55365;DHT22;41245;45.384;20.390;2023-02-03T17:40:10;205.00;2252.80
55365;DHT22;41245;45.384;20.390;2023-02-03T17:42:36;205.10;2252.80
55365;DHT22;41245;45.384;20.390;2023-02-03T17:45:02;205.10;2252.80
55365;DHT22;41245;45.384;20.390;2023-02-03T17:47:28;205.10;2252.80
55365;DHT22;41245;45.384;20.390;2023-02-03T17:49:53;205.10;2252.80
55365;DHT22;41245;45.384;20.390;2023-02-03T17:52:19;205.00;2252.80
55365;DHT22;41245;45.384;20.390;2023-02-03T17:54:45;205.10;2252.80
55365;DHT22;41245;45.384;20.390;2023-02-03T17:57:11;205.00;2252.80
55365;DHT22;41245;45.384;20.390;2023-02-03T17:59:36;205.00;2252.80
55365;DHT22;41245;45.384;20.390;2023-02-03T18:02:03;205.30;2252.80
55365;DHT22;41245;45.384;20.390;2023-02-03T18:04:29;205.10;2252.80
55365;DHT22;41245;45.384;20.390;2023-02-03T18:06:55;205.20;2252.80
55365;DHT22;41245;45.384;20.390;2023-02-03T18:09:20;205.20;2252.80
55365;DHT22;41245;45.384;20.390;2023-02-03T18:11:46;205.30;2252.80
55365;DHT22;41245;45.384;20.390;2023-02-03T18:14:13;205.10;2252.80
55365;DHT22;41245;45.384;20.390;2023-02-03T18:16:39;205.00;2252.80
55365;DHT22;41245;45.384;20.390;2023-02-03T18:19:07;205.00;2252.80
55365;DHT22;41245;45.384;20.390;2023-02-03T18:21:33;205.00;2252.80
55365;DHT22;41245;45.384;20.390;2023-02-03T18:24:00;205.10;2252.80
55365;DHT22;41245;45.384;20.390;2023-02-03T18:39:00;205.10;2252.80
55365;DHT22;41245;45.384;20.390;2023-02-03T18:41:26;205.60;2252.80
55365;DHT22;41245;45.384;20.390;2023-02-03T18:43:51;205.40;2252.80
55365;DHT22;41245;45.384;20.390;2023-02-03T18:46:23;205.40;2252.80
55365;DHT22;41245;45.384;20.390;2023-02-03T18:48:49;205.30;2252.80
55365;DHT22;41245;45.384;20.390;2023-02-03T18:51:16;205.20;2252.80
55365;DHT22;41245;45.384;20.390;2023-02-03T18:53:43;205.20;2252.80
55365;DHT22;41245;45.384;20.390;2023-02-03T18:56:16;205.20;2252.80
55365;DHT22;41245;45.384;20.390;2023-02-03T18:58:43;205.20;2252.80
55365;DHT22;41245;45.384;20.390;2023-02-03T19:01:09;205.10;2252.80
55365;DHT22;41245;45.384;20.390;2023-02-03T19:03:34;205.10;2252.80
55365;DHT22;41245;45.384;20.390;2023-02-03T19:06:00;205.00;2252.80
55365;DHT22;41245;45.384;20.390;2023-02-03T19:08:26;205.00;2252.80
55365;DHT22;41245;45.384;20.390;2023-02-03T19:10:53;204.90;2252.80
55365;DHT22;41245;45.384;20.390;2023-02-03T19:13:19;204.90;2252.80
55365;DHT22;41245;45.384;20.390;2023-02-03T19:15:47;204.90;2252.80
55365;DHT22;41245;45.384;20.390;2023-02-03T19:18:14;204.90;2252.80
55365;DHT22;41245;45.384;20.390;2023-02-03T19:20:42;204.90;2252.80
55365;DHT22;41245;45.384;20.390;2023-02-03T19:23:09;204.80;2252.80
55365;DHT22;41245;45.384;20.390;2023-02-03T19:25:35;204.90;2252.80
55365;DHT22;41245;45.384;20.390;2023-02-03T19:28:01;204.90;2252.80
55365;DHT22;41245;45.384;20.390;2023-02-03T19:30:28;204.80;2252.80
55365;DHT22;41245;45.384;20.390;2023-02-03T19:32:54;204.80;2252.80
55365;DHT22;41245;45.384;20.390;2023-02-03T19:35:19;205.00;2252.80
55365;DHT22;41245;45.384;20.390;2023-02-03T19:37:45;204.90;2252.80
55365;DHT22;41245;45.384;20.390;2023-02-03T19:40:10;204.80;2252.80
55365;DHT22;41245;45.384;20.390;2023-02-03T19:42:36;204.80;2252.80
55365;DHT22;41245;45.384;20.390;2023-02-03T19:45:02;204.80;2252.80
55365;DHT22;41245;45.384;20.390;2023-02-03T19:47:29;204.80;2252.80
55365;DHT22;41245;45.384;20.390;2023-02-03T19:49:55;204.80;2252.80
55365;DHT22;41245;45.384;20.390;2023-02-03T19:52:20;204.80;2252.80
55365;DHT22;41245;45.384;20.390;2023-02-03T19:54:46;204.80;2252.80
55365;DHT22;41245;45.384;20.390;2023-02-03T19:57:12;204.80;2252.80
55365;DHT22;41245;45.384;20.390;2023-02-03T19:59:37;204.80;2252.80
55365;DHT22;41245;45.384;20.390;2023-02-03T20:02:03;180.10;2252.80